Time;durP1;ratioP1;P1;durP2;ratioP2;P2;SDS_P1;SDS_P2;PMS_P1;PMS_P2;Temp;Humidity;BMP_temperature;BMP_pressure;BME280_temperature;BME280_humidity;BME280_pressure;Samples;Min_cycle;Max_cycle;Signal;HPM_P1;HPM_P2
2022/02/28 00:00:11;;;;;;;9.60;4.82;;;6.40;98.30;;;;;;4988065;28;20089;-65
2022/02/28 00:02:38;;;;;;;16.73;5.10;;;6.40;98.70;;;;;;4993314;28;20084;-65
2022/02/28 00:05:05;;;;;;;11.48;4.43;;;6.40;98.60;;;;;;5003903;28;20053;-65
2022/02/28 00:07:32;;;;;;;19.45;5.00;;;6.40;98.40;;;;;;5000979;28;20100;-65
2022/02/28 00:09:59;;;;;;;12.40;4.78;;;6.40;98.40;;;;;;4996278;28;20088;-65
2022/02/28 00:12:27;;;;;;;14.23;4.93;;;6.40;98.50;;;;;;4991309;28;20057;-64
2022/02/28 00:14:54;;;;;;;16.58;6.75;;;6.40;98.60;;;;;;5003334;28;20074;-65
2022/02/28 00:17:21;;;;;;;12.93;4.25;;;6.50;98.50;;;;;;4994369;28;20085;-65
2022/02/28 00:19:48;;;;;;;12.10;5.15;;;6.40;98.60;;;;;;5004506;28;20065;-65
2022/02/28 00:22:14;;;;;;;13.68;5.18;;;6.40;98.50;;;;;;4995346;28;20182;-65
2022/02/28 00:24:41;;;;;;;10.82;4.78;;;6.50;98.80;;;;;;4993720;28;20404;-66
2022/02/28 00:27:08;;;;;;;10.30;4.10;;;6.50;98.60;;;;;;4994640;28;20082;-66
2022/02/28 00:29:35;;;;;;;11.30;5.43;;;6.50;98.70;;;;;;4992596;28;20137;-65
2022/02/28 00:32:02;;;;;;;17.60;4.75;;;6.50;98.90;;;;;;5005460;28;20089;-66
2022/02/28 00:34:28;;;;;;;14.13;5.13;;;6.50;98.80;;;;;;5000526;28;20058;-65
2022/02/28 00:36:56;;;;;;;13.02;4.78;;;6.50;98.90;;;;;;4992543;28;20088;-66
2022/02/28 00:39:23;;;;;;;10.55;4.97;;;6.50;98.90;;;;;;4993073;28;20081;-65
2022/02/28 00:41:49;;;;;;;13.15;4.82;;;6.50;99.00;;;;;;4989465;28;20129;-65
2022/02/28 00:44:16;;;;;;;9.55;3.95;;;6.50;98.90;;;;;;4991679;28;20136;-63
2022/02/28 00:46:43;;;;;;;13.30;4.32;;;6.50;99.00;;;;;;4992750;28;20498;-65
2022/02/28 00:49:10;;;;;;;14.20;3.95;;;6.60;99.10;;;;;;4999130;28;20048;-64
2022/02/28 00:51:38;;;;;;;11.35;4.13;;;6.60;99.30;;;;;;4998526;28;20046;-64
2022/02/28 00:54:05;;;;;;;17.77;5.82;;;6.60;99.40;;;;;;5001548;28;20077;-64
2022/02/28 00:56:32;;;;;;;12.02;3.97;;;6.50;99.10;;;;;;5004493;28;20045;-65
2022/02/28 00:58:59;;;;;;;13.70;5.90;;;6.50;99.10;;;;;;4998815;28;20054;-64
2022/02/28 01:01:25;;;;;;;7.13;4.03;;;6.50;99.30;;;;;;4997279;28;20127;-64
2022/02/28 01:03:53;;;;;;;12.45;4.93;;;6.50;99.40;;;;;;4998112;28;20072;-64
2022/02/28 01:06:19;;;;;;;13.82;4.32;;;6.50;99.40;;;;;;4995595;28;20806;-64
2022/02/28 01:08:46;;;;;;;18.25;6.05;;;6.50;99.40;;;;;;4984371;28;20104;-64
2022/02/28 01:11:13;;;;;;;9.93;4.88;;;6.50;99.40;;;;;;4999312;28;20110;-64
2022/02/28 01:13:40;;;;;;;12.32;4.93;;;6.60;99.60;;;;;;4996931;28;20046;-65
2022/02/28 01:16:06;;;;;;;16.55;4.80;;;6.50;99.60;;;;;;4998416;28;20100;-64
2022/02/28 01:18:33;;;;;;;11.25;4.80;;;6.50;99.60;;;;;;4996719;28;20046;-64
2022/02/28 01:21:00;;;;;;;12.07;5.53;;;6.40;99.60;;;;;;4999889;28;20767;-64
2022/02/28 01:23:27;;;;;;;16.33;5.70;;;6.40;99.80;;;;;;4995868;28;20070;-64
2022/02/28 01:25:53;;;;;;;16.67;4.22;;;6.40;99.60;;;;;;5000288;28;20132;-65
2022/02/28 01:28:20;;;;;;;13.88;4.93;;;6.40;99.70;;;;;;4997577;28;20086;-64
2022/02/28 01:30:47;;;;;;;12.07;4.85;;;6.40;99.70;;;;;;4992880;28;20117;-66
2022/02/28 01:33:14;;;;;;;13.80;5.47;;;6.40;99.90;;;;;;4653485;28;10000585;-65
2022/02/28 01:35:41;;;;;;;13.63;5.72;;;6.40;99.80;;;;;;4998965;28;20147;-65
2022/02/28 01:38:08;;;;;;;15.40;4.95;;;6.30;99.80;;;;;;4996723;28;21409;-65
2022/02/28 01:40:34;;;;;;;14.95;5.18;;;6.30;99.90;;;;;;5002677;28;20101;-64
2022/02/28 01:43:02;;;;;;;11.57;4.45;;;6.30;99.90;;;;;;5004223;28;20046;-65
2022/02/28 01:45:29;;;;;;;10.52;4.78;;;6.20;99.90;;;;;;4996072;28;20054;-65
2022/02/28 01:47:56;;;;;;;13.98;4.70;;;6.20;99.90;;;;;;4997910;28;20046;-65
2022/02/28 01:50:24;;;;;;;10.45;4.68;;;6.20;99.90;;;;;;4996858;28;20053;-65
2022/02/28 01:52:50;;;;;;;12.85;5.70;;;6.20;99.90;;;;;;4996479;28;20096;-65
2022/02/28 01:55:19;;;;;;;13.55;5.10;;;6.20;99.90;;;;;;4998887;28;20074;-65
2022/02/28 01:57:46;;;;;;;11.75;4.85;;;6.20;99.90;;;;;;4997626;28;20042;-65
2022/02/28 02:00:14;;;;;;;8.55;4.18;;;6.20;99.90;;;;;;5009847;28;20133;-65
2022/02/28 02:02:41;;;;;;;19.50;5.28;;;6.20;99.90;;;;;;5003418;28;20088;-65
2022/02/28 02:05:08;;;;;;;16.55;5.25;;;6.20;99.90;;;;;;5009669;28;20070;-65
2022/02/28 02:07:35;;;;;;;15.93;5.25;;;6.20;99.90;;;;;;4995927;28;20077;-65
2022/02/28 02:10:07;;;;;;;14.98;5.25;;;6.20;99.90;;;;;;5002845;28;20060;-64
2022/02/28 02:12:34;;;;;;;13.30;5.22;;;6.20;99.90;;;;;;4999412;28;20563;-64
2022/02/28 02:15:08;;;;;;;20.40;5.53;;;6.20;99.90;;;;;;4981280;28;20521;-64
2022/02/28 02:17:36;;;;;;;15.73;4.75;;;6.10;99.90;;;;;;4979237;28;20517;-64
2022/02/28 02:20:26;;;;;;;15.15;4.90;;;6.10;99.90;;;;;;5005984;28;20351;-65
2022/02/28 02:22:56;;;;;;;14.63;5.03;;;6.20;99.90;;;;;;4990257;28;20081;-65
2022/02/28 02:25:23;;;;;;;9.40;4.32;;;6.20;99.90;;;;;;5000985;28;20046;-66
2022/02/28 02:27:50;;;;;;;12.82;4.80;;;6.10;99.90;;;;;;4996083;28;20670;-65
2022/02/28 02:30:17;;;;;;;12.98;4.45;;;6.10;99.90;;;;;;5005358;28;20050;-65
2022/02/28 02:32:44;;;;;;;15.68;4.00;;;6.10;99.90;;;;;;5001352;28;20054;-65
2022/02/28 02:35:12;;;;;;;12.57;4.00;;;6.10;99.90;;;;;;5004084;28;20489;-67
2022/02/28 02:37:39;;;;;;;16.05;4.72;;;6.10;99.90;;;;;;5004219;28;20053;-65
2022/02/28 02:40:06;;;;;;;17.25;4.20;;;6.20;99.90;;;;;;5002601;28;20069;-65
2022/02/28 02:42:33;;;;;;;12.50;4.70;;;6.20;99.90;;;;;;4998582;28;20046;-65
2022/02/28 02:45:00;;;;;;;12.40;4.00;;;6.20;99.90;;;;;;4995131;28;20047;-65
2022/02/28 02:47:26;;;;;;;9.82;4.90;;;6.20;99.90;;;;;;4997296;28;20084;-65
2022/02/28 02:49:53;;;;;;;12.32;3.97;;;6.20;99.90;;;;;;5005608;28;20069;-65
2022/02/28 02:52:20;;;;;;;11.85;4.47;;;6.20;99.90;;;;;;4996306;28;20096;-65
2022/02/28 02:54:46;;;;;;;10.85;4.35;;;6.30;99.90;;;;;;5001016;28;20039;-65
2022/02/28 02:57:13;;;;;;;14.57;5.40;;;6.20;99.90;;;;;;5005329;28;20194;-65
2022/02/28 02:59:40;;;;;;;22.10;4.43;;;6.30;99.90;;;;;;5000606;28;20097;-65
2022/02/28 03:02:07;;;;;;;13.38;4.80;;;6.30;99.90;;;;;;5006245;28;20088;-64
2022/02/28 03:04:34;;;;;;;15.48;4.95;;;6.30;99.90;;;;;;4994890;28;20046;-65
2022/02/28 03:07:01;;;;;;;11.15;4.40;;;6.30;99.90;;;;;;5008129;28;20085;-65
2022/02/28 03:09:29;;;;;;;29.00;5.70;;;6.30;99.90;;;;;;5002783;28;20145;-64
2022/02/28 03:11:55;;;;;;;12.32;4.82;;;6.30;99.90;;;;;;5001207;28;20050;-64
2022/02/28 03:14:22;;;;;;;13.10;4.60;;;6.40;99.90;;;;;;5001765;28;20076;-64
2022/02/28 03:16:49;;;;;;;18.38;4.72;;;6.40;99.90;;;;;;5007536;28;20592;-65
2022/02/28 03:19:16;;;;;;;10.95;3.95;;;6.40;99.90;;;;;;4998413;28;20085;-66
2022/02/28 03:21:42;;;;;;;15.82;4.32;;;6.50;99.90;;;;;;5008365;28;20108;-66
2022/02/28 03:24:10;;;;;;;13.85;4.35;;;6.50;99.90;;;;;;5006727;28;20089;-65
2022/02/28 03:26:37;;;;;;;14.80;5.07;;;6.50;99.90;;;;;;5005899;28;20046;-65
2022/02/28 03:29:04;;;;;;;16.08;4.72;;;6.50;99.90;;;;;;4993546;28;20605;-65
2022/02/28 03:31:31;;;;;;;12.60;4.40;;;6.60;99.90;;;;;;5001658;28;20128;-64
2022/02/28 03:33:57;;;;;;;14.70;6.05;;;6.60;99.90;;;;;;4652567;28;10000532;-65
2022/02/28 03:36:24;;;;;;;9.43;4.18;;;6.60;99.90;;;;;;4984935;28;20081;-65
2022/02/28 03:38:51;;;;;;;12.90;4.05;;;6.70;99.90;;;;;;5000978;28;20093;-65
2022/02/28 03:41:18;;;;;;;12.27;4.40;;;6.60;99.90;;;;;;4986611;28;20392;-65
2022/02/28 03:43:44;;;;;;;18.58;5.10;;;6.60;99.90;;;;;;5002505;28;20509;-65
2022/02/28 03:46:11;;;;;;;15.25;4.53;;;6.70;99.90;;;;;;4998227;28;20074;-65
2022/02/28 03:48:38;;;;;;;15.52;4.60;;;6.70;99.90;;;;;;5002775;28;20053;-65
2022/02/28 03:51:05;;;;;;;17.15;4.28;;;6.70;99.90;;;;;;4981602;28;20078;-65
2022/02/28 03:53:32;;;;;;;12.45;3.75;;;6.70;99.90;;;;;;5009551;28;20137;-65
2022/02/28 03:56:00;;;;;;;12.73;5.00;;;6.70;99.90;;;;;;5003594;28;20100;-65
2022/02/28 03:58:27;;;;;;;15.10;4.97;;;6.80;99.90;;;;;;5007503;28;20405;-64
2022/02/28 04:00:54;;;;;;;13.00;4.45;;;6.80;99.90;;;;;;4993055;28;20073;-64
2022/02/28 04:03:24;;;;;;;11.82;3.95;;;6.90;99.90;;;;;;4996756;28;20160;-65
2022/02/28 04:05:51;;;;;;;12.35;4.32;;;6.90;99.90;;;;;;4997365;28;20052;-65
2022/02/28 04:08:18;;;;;;;25.40;5.15;;;6.90;99.90;;;;;;4991535;28;20086;-65
2022/02/28 04:10:44;;;;;;;15.85;5.10;;;6.90;99.90;;;;;;5002171;28;20053;-65
2022/02/28 04:13:11;;;;;;;11.85;4.38;;;7.00;99.90;;;;;;4992107;28;20081;-64
2022/02/28 04:15:39;;;;;;;16.58;5.97;;;7.00;99.90;;;;;;5001449;28;20050;-66
2022/02/28 04:18:06;;;;;;;12.20;4.82;;;7.00;99.90;;;;;;4996669;28;20093;-66
2022/02/28 04:20:32;;;;;;;15.93;4.70;;;7.00;99.90;;;;;;5007253;28;20097;-64
2022/02/28 04:23:02;;;;;;;14.68;4.25;;;7.10;99.90;;;;;;4998715;28;20465;-65
2022/02/28 04:25:29;;;;;;;18.90;5.18;;;7.10;99.90;;;;;;4999403;28;20086;-65
2022/02/28 04:27:56;;;;;;;15.93;4.20;;;7.10;99.90;;;;;;5001664;28;20485;-64
2022/02/28 04:30:23;;;;;;;12.13;4.10;;;7.10;99.90;;;;;;5009216;28;20108;-65
2022/02/28 04:32:49;;;;;;;15.55;4.60;;;7.20;99.90;;;;;;4998330;28;20540;-65
2022/02/28 04:35:16;;;;;;;14.05;4.57;;;7.20;99.90;;;;;;5002940;28;20085;-66
2022/02/28 04:37:46;;;;;;;18.00;5.18;;;7.10;99.90;;;;;;4999453;28;20481;-65
2022/02/28 04:40:13;;;;;;;13.15;4.15;;;7.20;99.90;;;;;;5002701;28;20065;-66
2022/02/28 04:42:40;;;;;;;14.55;4.55;;;7.20;99.90;;;;;;5005429;28;20050;-65
2022/02/28 04:45:07;;;;;;;18.58;4.85;;;7.20;99.90;;;;;;5008703;28;20050;-66
2022/02/28 04:47:34;;;;;;;12.77;4.60;;;7.20;99.90;;;;;;5001689;28;20065;-65
2022/02/28 04:50:00;;;;;;;15.20;4.85;;;7.20;99.90;;;;;;5006510;28;20046;-65
2022/02/28 04:52:27;;;;;;;17.25;4.72;;;7.20;99.90;;;;;;4980874;28;20093;-65
2022/02/28 04:54:54;;;;;;;17.05;4.25;;;7.20;99.90;;;;;;4994431;28;20045;-67
2022/02/28 04:57:21;;;;;;;11.93;5.85;;;7.30;99.90;;;;;;5002415;28;20046;-65
2022/02/28 04:59:47;;;;;;;13.52;4.45;;;7.20;99.90;;;;;;5000346;28;20088;-65
2022/02/28 05:02:14;;;;;;;12.55;3.95;;;7.30;99.90;;;;;;4977260;28;20038;-64
2022/02/28 05:04:41;;;;;;;11.77;4.50;;;7.30;99.90;;;;;;4990721;28;20331;-64
2022/02/28 05:07:08;;;;;;;15.98;3.95;;;7.30;99.90;;;;;;4999108;28;20042;-65
2022/02/28 05:09:35;;;;;;;16.63;4.28;;;7.30;99.90;;;;;;4989670;28;20116;-65
2022/02/28 05:12:02;;;;;;;14.40;4.00;;;7.40;99.90;;;;;;4997704;28;20051;-66
2022/02/28 05:14:28;;;;;;;20.25;4.85;;;7.40;99.90;;;;;;4994717;28;20096;-65
2022/02/28 05:16:57;;;;;;;13.90;4.40;;;7.40;99.90;;;;;;5006727;28;20045;-64
2022/02/28 05:19:24;;;;;;;15.10;4.63;;;7.40;99.90;;;;;;4993819;28;20041;-64
2022/02/28 05:21:51;;;;;;;19.63;4.78;;;7.40;99.90;;;;;;4999235;28;20061;-65
2022/02/28 05:24:18;;;;;;;14.93;4.65;;;7.50;99.90;;;;;;4993468;28;20042;-65
2022/02/28 05:26:44;;;;;;;13.52;5.40;;;7.60;99.90;;;;;;5005968;28;20139;-65
2022/02/28 05:29:11;;;;;;;10.15;4.80;;;7.50;99.90;;;;;;4996267;28;20054;-64
2022/02/28 05:31:38;;;;;;;15.65;4.35;;;7.50;99.90;;;;;;5003970;28;20046;-64
2022/02/28 05:34:05;;;;;;;21.77;4.25;;;7.50;99.90;;;;;;5001836;28;20042;-64
2022/02/28 05:36:32;;;;;;;13.52;4.50;;;7.60;99.90;;;;;;5002679;28;20086;-65
2022/02/28 05:38:58;;;;;;;22.48;5.25;;;7.70;99.90;;;;;;5002730;28;20045;-65
2022/02/28 05:41:25;;;;;;;12.05;3.65;;;7.60;99.90;;;;;;5009819;28;20085;-64
2022/02/28 05:43:52;;;;;;;20.25;4.68;;;7.60;99.90;;;;;;5003659;28;20046;-64
2022/02/28 05:46:19;;;;;;;16.40;3.72;;;7.60;99.90;;;;;;5000887;28;20046;-64
2022/02/28 05:48:46;;;;;;;11.65;4.18;;;7.70;99.90;;;;;;5002852;28;20661;-64
2022/02/28 05:51:12;;;;;;;17.35;4.93;;;7.70;99.90;;;;;;5000548;28;20522;-64
2022/02/28 05:53:39;;;;;;;12.88;3.92;;;7.70;99.90;;;;;;5009211;28;20088;-64
2022/02/28 05:56:06;;;;;;;15.05;4.53;;;7.70;99.90;;;;;;4994382;28;20046;-66
2022/02/28 05:58:33;;;;;;;14.23;4.28;;;7.70;99.90;;;;;;5000115;28;20107;-64
2022/02/28 06:00:59;;;;;;;12.88;4.50;;;7.70;99.90;;;;;;5006863;28;20078;-65
2022/02/28 06:03:26;;;;;;;13.57;4.57;;;7.70;99.90;;;;;;5002571;28;20046;-65
2022/02/28 06:05:53;;;;;;;11.95;4.15;;;7.70;99.90;;;;;;5023197;28;20050;-66
2022/02/28 06:08:20;;;;;;;14.70;4.22;;;7.70;99.90;;;;;;5007294;28;20049;-65
2022/02/28 06:10:47;;;;;;;17.40;3.63;;;7.70;99.90;;;;;;4997246;28;20042;-64
2022/02/28 06:13:15;;;;;;;14.75;5.05;;;7.70;99.90;;;;;;4998233;28;20084;-65
2022/02/28 06:15:41;;;;;;;17.42;5.40;;;7.70;99.90;;;;;;4997370;28;20241;-65
2022/02/28 06:18:09;;;;;;;12.13;4.53;;;7.70;99.90;;;;;;5008643;28;20150;-63
2022/02/28 06:20:37;;;;;;;13.95;4.63;;;7.70;99.90;;;;;;4998636;28;20058;-65
2022/02/28 06:23:04;;;;;;;12.25;4.18;;;7.70;99.90;;;;;;4998912;28;20097;-65
2022/02/28 06:25:31;;;;;;;11.27;3.92;;;7.70;99.90;;;;;;5002509;28;20051;-65
2022/02/28 06:27:58;;;;;;;9.65;4.00;;;7.70;99.90;;;;;;5003001;28;20057;-65
2022/02/28 06:30:25;;;;;;;14.15;4.10;;;7.70;99.90;;;;;;4999337;28;20100;-65
2022/02/28 06:32:52;;;;;;;16.55;4.20;;;7.70;99.90;;;;;;5001243;28;20046;-65
2022/02/28 06:35:19;;;;;;;13.77;4.63;;;7.70;99.90;;;;;;4998134;28;20520;-65
2022/02/28 06:37:45;;;;;;;14.93;5.03;;;7.70;99.90;;;;;;5006946;28;20093;-65
2022/02/28 06:40:13;;;;;;;15.75;5.18;;;7.70;99.90;;;;;;4981669;28;20203;-65
2022/02/28 06:42:39;;;;;;;8.95;3.65;;;7.70;99.90;;;;;;5004100;28;20050;-65
2022/02/28 06:45:06;;;;;;;15.45;4.07;;;7.70;99.90;;;;;;5001773;28;20046;-65
2022/02/28 06:47:33;;;;;;;14.25;3.85;;;7.80;99.90;;;;;;4979237;28;20054;-65
2022/02/28 06:50:00;;;;;;;17.25;5.45;;;7.80;99.90;;;;;;4981459;28;20524;-64
2022/02/28 06:52:27;;;;;;;11.63;3.70;;;7.70;99.90;;;;;;4997346;28;20069;-65
2022/02/28 06:54:54;;;;;;;9.73;4.05;;;7.80;99.90;;;;;;4998818;28;20476;-65
2022/02/28 06:57:21;;;;;;;17.95;3.80;;;7.80;99.90;;;;;;4994467;28;20062;-65
2022/02/28 06:59:48;;;;;;;11.88;3.83;;;7.80;99.90;;;;;;5009649;28;20045;-65
2022/02/28 07:02:15;;;;;;;9.32;3.30;;;7.80;99.90;;;;;;4997548;28;20054;-65
2022/02/28 07:04:42;;;;;;;14.23;4.03;;;7.90;99.90;;;;;;4980900;28;20050;-65
2022/02/28 07:07:10;;;;;;;19.27;4.47;;;7.90;99.90;;;;;;5000818;28;20046;-65
2022/02/28 07:09:37;;;;;;;17.33;3.50;;;7.90;99.90;;;;;;4984626;28;20050;-64
2022/02/28 07:12:04;;;;;;;15.93;4.28;;;7.90;99.90;;;;;;4985843;28;20082;-65
2022/02/28 07:14:31;;;;;;;11.60;3.60;;;7.90;99.90;;;;;;5005572;28;20050;-63
2022/02/28 07:16:58;;;;;;;21.33;4.95;;;7.90;99.90;;;;;;5000028;28;20046;-66
2022/02/28 07:19:24;;;;;;;15.85;3.83;;;8.00;99.90;;;;;;4999371;28;20415;-64
2022/02/28 07:21:51;;;;;;;17.48;4.57;;;8.00;99.90;;;;;;5001604;28;20137;-64
2022/02/28 07:24:22;;;;;;;15.82;4.60;;;8.00;99.90;;;;;;4990668;28;20046;-63
2022/02/28 07:26:52;;;;;;;12.88;4.05;;;8.00;99.90;;;;;;4999253;28;20049;-64
2022/02/28 07:29:19;;;;;;;12.10;3.92;;;8.00;99.90;;;;;;4992639;28;20105;-65
2022/02/28 07:31:46;;;;;;;22.48;4.00;;;8.00;99.90;;;;;;5000038;28;20548;-64
2022/02/28 07:34:13;;;;;;;16.42;4.03;;;8.10;99.90;;;;;;4992621;28;20055;-65
2022/02/28 07:36:40;;;;;;;17.25;5.50;;;8.10;99.90;;;;;;5007996;28;20125;-64
2022/02/28 07:39:06;;;;;;;22.05;5.95;;;8.10;99.90;;;;;;4996538;28;20053;-64
2022/02/28 07:41:33;;;;;;;15.15;3.70;;;8.10;99.90;;;;;;5000685;28;20057;-65
2022/02/28 07:44:00;;;;;;;9.60;3.67;;;8.20;99.90;;;;;;4996560;28;20160;-62
2022/02/28 07:46:27;;;;;;;12.95;4.10;;;8.20;99.90;;;;;;4973240;28;20050;-62
2022/02/28 07:48:54;;;;;;;10.65;3.75;;;8.20;99.90;;;;;;5000247;28;20046;-63
2022/02/28 07:51:21;;;;;;;9.23;4.00;;;8.20;99.90;;;;;;4998950;28;20038;-63
2022/02/28 07:53:47;;;;;;;15.93;3.47;;;8.30;99.90;;;;;;5002236;28;20046;-63
2022/02/28 07:56:14;;;;;;;12.23;4.05;;;8.20;99.90;;;;;;5001045;28;20413;-63
2022/02/28 07:58:41;;;;;;;10.43;3.08;;;8.30;99.90;;;;;;4984909;28;20053;-62
2022/02/28 08:01:08;;;;;;;12.32;4.15;;;8.30;99.90;;;;;;4999644;28;20605;-62
2022/02/28 08:03:35;;;;;;;18.85;4.57;;;8.30;99.90;;;;;;4984680;28;20060;-63
2022/02/28 08:06:02;;;;;;;9.00;2.90;;;8.40;99.90;;;;;;4999549;28;20130;-63
2022/02/28 08:08:29;;;;;;;19.42;4.88;;;8.40;99.90;;;;;;4995623;28;20069;-61
2022/02/28 08:10:56;;;;;;;9.60;3.05;;;8.50;99.90;;;;;;5002088;28;20093;-62
2022/02/28 08:13:23;;;;;;;14.27;4.13;;;8.50;99.90;;;;;;5000078;28;20149;-62
2022/02/28 08:15:49;;;;;;;18.70;4.55;;;8.50;99.90;;;;;;4985596;28;20101;-63
2022/02/28 08:18:16;;;;;;;20.38;5.13;;;8.50;99.90;;;;;;4999094;28;20133;-62
2022/02/28 08:20:43;;;;;;;15.43;5.68;;;8.70;99.90;;;;;;5000910;28;20046;-62
2022/02/28 08:23:10;;;;;;;18.88;4.40;;;8.70;99.90;;;;;;5001034;28;20137;-62
2022/02/28 08:25:37;;;;;;;18.02;5.15;;;8.70;99.90;;;;;;4999576;28;20169;-62
2022/02/28 08:28:04;;;;;;;16.98;4.68;;;8.80;99.90;;;;;;4989037;28;20504;-63
2022/02/28 08:30:31;;;;;;;11.77;3.42;;;8.80;99.90;;;;;;4994098;28;20070;-64
2022/02/28 08:33:02;;;;;;;14.27;4.95;;;8.90;99.90;;;;;;4999670;28;20493;-63
2022/02/28 08:35:29;;;;;;;26.25;5.53;;;9.00;99.90;;;;;;4996775;28;20053;-63
2022/02/28 08:37:56;;;;;;;15.63;3.30;;;9.00;99.90;;;;;;4996001;28;20049;-62
2022/02/28 08:40:23;;;;;;;9.75;3.78;;;9.10;99.90;;;;;;4998099;28;20089;-63
2022/02/28 08:42:55;;;;;;;11.90;4.25;;;9.20;99.90;;;;;;4990964;28;20100;-63
2022/02/28 08:45:22;;;;;;;14.55;4.30;;;9.20;99.90;;;;;;5000490;28;20123;-63
2022/02/28 08:47:49;;;;;;;27.65;5.25;;;9.20;99.90;;;;;;4977793;28;20197;-63
2022/02/28 08:50:17;;;;;;;12.07;5.07;;;9.30;99.90;;;;;;4989585;28;20042;-63
2022/02/28 08:52:44;;;;;;;23.40;5.35;;;9.30;99.90;;;;;;4975644;28;20050;-63
2022/02/28 08:55:11;;;;;;;22.40;6.97;;;9.40;99.90;;;;;;4992605;28;20125;-63
2022/02/28 08:57:38;;;;;;;22.42;7.05;;;9.60;99.90;;;;;;5003277;28;20046;-64
2022/02/28 09:00:06;;;;;;;21.25;6.72;;;9.80;99.90;;;;;;4992692;28;20053;-62
2022/02/28 09:02:33;;;;;;;25.45;7.70;;;9.80;99.90;;;;;;5000401;28;20464;-63
2022/02/28 09:05:00;;;;;;;13.38;5.07;;;10.00;99.90;;;;;;5004992;28;20049;-64
2022/02/28 09:07:26;;;;;;;21.25;6.20;;;10.10;99.90;;;;;;4979239;28;20045;-64
2022/02/28 09:09:53;;;;;;;17.27;5.22;;;10.30;99.90;;;;;;4998450;28;20081;-64
2022/02/28 09:12:20;;;;;;;20.10;4.22;;;10.50;99.90;;;;;;4978126;28;20085;-64
2022/02/28 09:14:48;;;;;;;13.27;4.40;;;10.70;99.90;;;;;;5005798;28;20053;-62
2022/02/28 09:17:15;;;;;;;33.00;7.93;;;11.00;99.80;;;;;;4998819;28;20053;-63
2022/02/28 09:19:44;;;;;;;16.83;4.28;;;11.20;99.50;;;;;;5001543;28;20141;-63
2022/02/28 09:22:11;;;;;;;21.67;5.05;;;11.40;99.30;;;;;;5000119;28;20096;-64
2022/02/28 09:24:38;;;;;;;19.25;4.65;;;11.40;99.40;;;;;;4989591;28;20097;-63
2022/02/28 09:27:07;;;;;;;14.88;4.03;;;11.40;99.30;;;;;;5001666;28;20046;-63
2022/02/28 09:29:34;;;;;;;22.08;4.32;;;11.40;99.30;;;;;;4980323;28;20084;-63
2022/02/28 09:32:03;;;;;;;11.60;4.28;;;11.30;99.20;;;;;;4996301;28;20523;-62
2022/02/28 09:34:30;;;;;;;19.40;4.60;;;11.30;99.20;;;;;;4991734;28;20050;-64
2022/02/28 09:36:57;;;;;;;20.70;4.50;;;11.20;99.40;;;;;;4994837;28;20039;-64
2022/02/28 09:39:24;;;;;;;17.30;4.55;;;11.20;99.60;;;;;;4999389;28;20193;-63
2022/02/28 09:41:51;;;;;;;10.77;3.33;;;11.20;99.70;;;;;;4995510;28;20039;-63
2022/02/28 09:44:17;;;;;;;19.02;4.63;;;11.20;99.70;;;;;;4979266;28;20058;-63
2022/02/28 09:46:44;;;;;;;14.75;3.72;;;11.20;99.80;;;;;;4972948;28;20054;-63
2022/02/28 09:49:12;;;;;;;21.38;4.32;;;11.20;99.70;;;;;;4981186;28;20042;-66
2022/02/28 09:51:41;;;;;;;15.18;3.55;;;11.20;99.70;;;;;;4996471;28;20138;-63
2022/02/28 09:54:07;;;;;;;22.40;4.88;;;11.20;99.90;;;;;;5006132;28;20053;-63
2022/02/28 09:56:34;;;;;;;13.63;4.43;;;11.20;99.90;;;;;;5005463;28;20050;-64
2022/02/28 09:59:01;;;;;;;15.05;3.63;;;11.20;99.90;;;;;;4980962;28;20077;-63
2022/02/28 10:01:48;;;;;;;15.98;4.53;;;11.30;99.90;;;;;;4997998;28;20532;-63
2022/02/28 10:04:15;;;;;;;16.23;4.78;;;11.40;99.90;;;;;;5001423;28;20095;-65
2022/02/28 10:06:43;;;;;;;17.67;3.22;;;11.50;99.90;;;;;;5000234;28;20078;-63
2022/02/28 10:09:18;;;;;;;26.38;5.68;;;11.60;99.90;;;;;;5003249;28;20054;-63
2022/02/28 10:11:49;;;;;;;14.98;3.90;;;11.70;99.90;;;;;;4999363;28;20081;-64
2022/02/28 10:14:16;;;;;;;14.80;3.65;;;11.70;99.90;;;;;;5000816;28;20120;-63
2022/02/28 10:16:46;;;;;;;18.45;3.95;;;11.80;99.90;;;;;;4998622;28;20088;-63
2022/02/28 10:19:15;;;;;;;16.73;5.10;;;11.80;99.80;;;;;;4998279;28;20437;-63
2022/02/28 10:21:46;;;;;;;17.85;4.63;;;11.80;99.80;;;;;;5002586;28;20380;-64
2022/02/28 10:24:40;;;;;;;16.77;3.47;;;11.80;99.80;;;;;;4996198;28;20046;-63
2022/02/28 10:27:08;;;;;;;22.73;3.47;;;11.80;99.70;;;;;;4983067;28;20137;-64
2022/02/28 10:29:39;;;;;;;9.80;2.80;;;11.80;99.90;;;;;;4997744;28;20093;-63
2022/02/28 10:32:07;;;;;;;17.55;3.20;;;11.80;99.90;;;;;;5009523;28;20081;-63
2022/02/28 10:35:59;;;;;;;32.70;6.43;;;11.80;99.90;;;;;;5001412;28;20041;-63
2022/02/28 10:37:45;;;;;;;17.63;3.92;;;11.80;99.90;;;;;;4992556;28;20055;-63
2022/02/28 10:40:12;;;;;;;14.68;2.92;;;11.80;99.90;;;;;;4998100;28;20539;-64
2022/02/28 10:42:51;;;;;;;18.70;4.22;;;11.90;99.90;;;;;;4989723;28;20105;-64
2022/02/28 10:45:18;;;;;;;12.73;3.70;;;11.80;99.90;;;;;;4981127;28;20082;-64
2022/02/28 10:47:47;;;;;;;27.55;5.78;;;11.90;99.90;;;;;;5002361;28;20053;-63
2022/02/28 10:50:33;;;;;;;18.20;3.50;;;11.90;99.90;;;;;;5004377;28;20085;-64
2022/02/28 10:53:01;;;;;;;20.02;3.90;;;11.90;99.90;;;;;;4978474;28;20054;-63
2022/02/28 10:55:35;;;;;;;11.57;3.08;;;12.00;99.90;;;;;;4998290;28;20149;-65
2022/02/28 10:58:18;;;;;;;20.30;4.03;;;12.00;99.90;;;;;;5010918;28;20527;-63
2022/02/28 11:01:06;;;;;;;17.65;3.53;;;12.10;99.90;;;;;;5003628;28;20046;-66
2022/02/28 11:03:47;;;;;;;18.50;3.75;;;12.10;99.80;;;;;;4975177;28;20249;-64
2022/02/28 11:06:26;;;;;;;20.42;4.55;;;12.00;99.70;;;;;;5005231;28;20053;-64
2022/02/28 11:08:53;;;;;;;14.38;3.17;;;12.10;99.70;;;;;;4991582;28;20086;-64
2022/02/28 11:11:20;;;;;;;9.38;3.83;;;12.20;99.90;;;;;;4999321;28;20069;-63
2022/02/28 11:13:47;;;;;;;14.93;3.70;;;12.20;99.80;;;;;;4993133;28;20046;-63
2022/02/28 11:16:13;;;;;;;19.13;4.45;;;12.30;99.70;;;;;;5003249;28;20058;-63
2022/02/28 11:18:41;;;;;;;14.68;4.32;;;12.40;99.80;;;;;;4991107;28;20056;-66
2022/02/28 11:21:08;;;;;;;23.08;5.10;;;12.30;99.70;;;;;;5000553;28;20065;-65
2022/02/28 11:23:38;;;;;;;11.75;3.30;;;12.30;99.70;;;;;;5006199;28;20054;-64
2022/02/28 11:26:05;;;;;;;12.82;3.58;;;12.20;99.80;;;;;;4994602;28;20137;-64
2022/02/28 11:28:32;;;;;;;11.98;3.83;;;12.30;99.90;;;;;;5007353;28;20093;-64
2022/02/28 11:31:06;;;;;;;7.70;3.33;;;12.30;99.80;;;;;;4986711;28;20202;-64
2022/02/28 11:33:33;;;;;;;16.15;3.75;;;12.40;99.90;;;;;;5001038;28;20130;-64
2022/02/28 11:35:59;;;;;;;13.57;3.17;;;12.50;99.90;;;;;;5000686;28;20070;-64
2022/02/28 11:38:27;;;;;;;14.15;3.65;;;12.50;99.90;;;;;;4991942;28;20042;-64
2022/02/28 11:40:55;;;;;;;19.42;4.60;;;12.50;99.90;;;;;;5001316;28;20104;-63
2022/02/28 11:43:26;;;;;;;19.05;4.90;;;12.70;99.90;;;;;;4999018;28;20467;-63
2022/02/28 11:46:02;;;;;;;12.60;3.75;;;12.70;99.70;;;;;;4994053;28;20081;-63
2022/02/28 11:48:49;;;;;;;21.25;4.75;;;12.90;99.80;;;;;;4973245;28;20061;-63
2022/02/28 11:51:33;;;;;;;17.92;3.83;;;13.00;99.60;;;;;;4994651;28;20070;-63
2022/02/28 11:54:03;;;;;;;13.15;3.85;;;13.00;99.60;;;;;;4981030;28;20069;-65
2022/02/28 11:56:37;;;;;;;21.95;3.92;;;12.90;99.60;;;;;;4994375;28;20486;-64
2022/02/28 11:59:05;;;;;;;10.57;2.97;;;12.90;99.70;;;;;;4998196;28;20097;-64
2022/02/28 12:01:33;;;;;;;15.75;3.38;;;12.90;99.80;;;;;;4977938;28;20133;-65
2022/02/28 12:04:16;;;;;;;20.15;4.57;;;12.80;99.70;;;;;;4997559;28;20048;-62
2022/02/28 12:06:53;;;;;;;14.77;3.78;;;12.80;99.70;;;;;;4995748;28;20052;-65
2022/02/28 12:09:32;;;;;;;19.15;4.43;;;12.70;99.70;;;;;;5000347;28;20049;-64
2022/02/28 12:12:31;;;;;;;10.63;2.67;;;12.70;99.90;;;;;;5004683;28;20053;-64
2022/02/28 12:15:04;;;;;;;14.48;3.50;;;12.70;99.90;;;;;;4999436;28;20068;-64
2022/02/28 12:17:40;;;;;;;9.47;3.57;;;12.60;99.90;;;;;;4976994;28;20085;-64
2022/02/28 12:20:16;;;;;;;12.93;3.33;;;12.60;99.90;;;;;;5001733;28;20049;-64
2022/02/28 12:22:55;;;;;;;10.88;3.20;;;12.50;99.90;;;;;;5003471;28;20077;-64
2022/02/28 12:25:40;;;;;;;10.98;2.67;;;12.60;99.90;;;;;;5002477;28;20038;-63
2022/02/28 12:28:35;;;;;;;11.82;3.13;;;12.50;99.90;;;;;;5003450;28;20092;-64
2022/02/28 12:31:05;;;;;;;;;;;12.50;99.90;;;;;;4990434;28;20077;-64
2022/02/28 12:33:35;;;;;;;13.60;2.40;;;12.50;99.90;;;;;;4998886;28;19975;-63
2022/02/28 12:36:21;;;;;;;10.38;2.92;;;12.60;99.90;;;;;;4997480;28;20042;-63
2022/02/28 12:38:53;;;;;;;8.75;2.65;;;12.70;99.90;;;;;;4994108;28;20080;-64
2022/02/28 12:41:29;;;;;;;8.48;2.55;;;12.70;99.90;;;;;;5007974;28;20481;-64
2022/02/28 12:44:00;;;;;;;17.05;3.65;;;12.60;99.90;;;;;;4994403;28;20046;-63
2022/02/28 12:46:28;;;;;;;17.45;3.17;;;12.70;99.90;;;;;;5008419;28;20041;-65
2022/02/28 12:48:55;;;;;;;7.18;2.55;;;12.70;99.90;;;;;;4995863;28;20061;-64
2022/02/28 12:51:27;;;;;;;9.43;2.83;;;12.70;99.90;;;;;;4986285;28;20070;-64